createdAt,value
2018-11-21T00:00:59.018Z,89.43
2018-11-21T00:03:28.521Z,89.44
2018-11-21T00:05:57.989Z,89.50
2018-11-21T00:08:27.609Z,89.73
2018-11-21T00:10:57.078Z,89.67
2018-11-21T00:13:26.604Z,89.66
2018-11-21T00:15:56.170Z,89.76
2018-11-21T00:18:25.619Z,90.45
2018-11-21T00:20:55.012Z,90.64
2018-11-21T00:23:24.473Z,90.96
2018-11-21T00:26:13.207Z,91.44
2018-11-21T00:28:42.701Z,92.19
2018-11-21T00:31:12.141Z,92.71
2018-11-21T00:33:41.569Z,94.11
2018-11-21T00:36:11.029Z,94.70
2018-11-21T00:38:40.531Z,95.34
2018-11-21T00:41:10.100Z,95.81
2018-11-21T00:43:39.577Z,96.33
2018-11-21T00:46:09.009Z,96.79
2018-11-21T00:48:38.549Z,97.04
2018-11-21T00:51:08.327Z,97.46
2018-11-21T00:53:37.817Z,97.88
2018-11-21T00:56:07.369Z,98.25
2018-11-21T00:58:36.824Z,98.53
2018-11-21T01:01:06.710Z,98.93
2018-11-21T01:03:36.298Z,99.21
2018-11-21T01:06:05.804Z,99.49
2018-11-21T01:08:35.243Z,99.71
2018-11-21T01:11:04.803Z,99.78
2018-11-21T01:13:53.616Z,100.00
2018-11-21T01:16:23.089Z,100.00
2018-11-21T01:18:52.562Z,100.00
2018-11-21T01:21:22.063Z,100.00
2018-11-21T01:23:51.539Z,100.00
2018-11-21T01:26:21.058Z,100.00
2018-11-21T01:28:50.569Z,100.00
2018-11-21T01:31:20.013Z,100.00
2018-11-21T01:33:49.511Z,100.00
2018-11-21T01:36:18.947Z,100.00
2018-11-21T01:38:48.529Z,100.00
2018-11-21T01:43:59.391Z,100.00
2018-11-21T01:46:28.870Z,100.00
2018-11-21T01:48:58.309Z,100.00
2018-11-21T01:51:27.810Z,100.00
2018-11-21T01:53:57.286Z,100.00
2018-11-21T01:59:07.702Z,100.00
2018-11-21T02:01:37.189Z,100.00
2018-11-21T02:04:06.978Z,100.00
2018-11-21T02:06:36.663Z,100.00
2018-11-21T02:09:09.531Z,100.00
2018-11-21T02:14:27.479Z,100.00
2018-11-21T02:19:45.328Z,100.00
2018-11-21T02:22:14.795Z,100.00
2018-11-21T02:24:44.231Z,100.00
2018-11-21T02:27:13.727Z,100.00
2018-11-21T02:29:43.206Z,100.00
2018-11-21T02:32:12.593Z,100.00
2018-11-21T02:34:42.026Z,100.00
2018-11-21T02:37:11.516Z,100.00
2018-11-21T02:39:53.002Z,100.00
2018-11-21T02:42:22.459Z,100.00
2018-11-21T02:44:51.872Z,100.00
2018-11-21T02:47:21.392Z,100.00
2018-11-21T02:49:50.775Z,100.00
2018-11-21T02:52:20.355Z,100.00
2018-11-21T02:54:49.794Z,100.00
2018-11-21T02:57:33.980Z,100.00
2018-11-21T03:00:15.805Z,100.00
2018-11-21T03:02:45.749Z,100.00
2018-11-21T03:05:15.234Z,100.00
2018-11-21T03:08:03.640Z,100.00
2018-11-21T03:10:33.069Z,100.00
2018-11-21T03:13:02.524Z,100.00
2018-11-21T03:18:13.788Z,100.00
2018-11-21T03:20:43.306Z,100.00
2018-11-21T03:23:12.865Z,100.00
2018-11-21T03:25:42.367Z,100.00
2018-11-21T03:28:11.850Z,100.00
2018-11-21T03:30:41.270Z,100.00
2018-11-21T03:33:10.782Z,100.00
2018-11-21T03:35:40.218Z,100.00
2018-11-21T03:38:09.682Z,100.00
2018-11-21T03:40:39.227Z,100.00
2018-11-21T03:43:08.694Z,100.00
2018-11-21T03:45:38.164Z,100.00
2018-11-21T03:48:07.619Z,100.00
2018-11-21T03:50:37.074Z,100.00
2018-11-21T03:53:06.805Z,100.00
2018-11-21T03:55:36.260Z,100.00
2018-11-21T03:58:05.882Z,100.00
2018-11-21T04:00:35.359Z,100.00
2018-11-21T04:05:53.339Z,100.00
2018-11-21T04:08:22.869Z,100.00
2018-11-21T04:10:52.421Z,100.00
2018-11-21T04:13:21.838Z,100.00
2018-11-21T04:15:51.365Z,100.00
2018-11-21T04:18:20.803Z,100.00
2018-11-21T04:20:50.243Z,100.00
2018-11-21T04:23:19.748Z,100.00
2018-11-21T04:26:01.734Z,100.00
2018-11-21T04:28:31.366Z,100.00
2018-11-21T04:31:00.785Z,100.00
2018-11-21T04:36:12.822Z,100.00
2018-11-21T04:38:42.348Z,100.00
2018-11-21T04:41:11.785Z,100.00
2018-11-21T04:43:41.273Z,100.00
2018-11-21T04:46:10.770Z,100.00
2018-11-21T05:32:35.759Z,100.00
2018-11-21T06:03:41.838Z,100.00
2018-11-21T09:22:28.167Z,96.70
2018-11-21T09:29:09.727Z,96.59
2018-11-21T09:35:59.822Z,96.44
2018-11-21T10:16:22.684Z,98.08
2018-11-21T10:30:25.899Z,97.79
2018-11-21T10:38:15.532Z,98.36
2018-11-21T10:40:45.102Z,98.42
2018-11-21T10:43:14.560Z,98.49
2018-11-21T10:45:44.365Z,98.53
2018-11-21T10:48:13.845Z,98.73
2018-11-21T10:50:43.289Z,98.78
2018-11-21T10:53:12.824Z,98.85
2018-11-21T10:55:42.283Z,98.75
2018-11-21T11:01:11.770Z,99.25
2018-11-21T11:03:48.149Z,99.32
2018-11-21T11:06:35.704Z,99.40
2018-11-21T11:09:26.945Z,99.54
2018-11-21T11:12:15.381Z,99.60
2018-11-21T11:15:03.762Z,99.57
2018-11-21T11:17:53.366Z,99.78
2018-11-21T11:20:42.766Z,99.95
2018-11-21T11:23:31.128Z,99.89
2018-11-21T11:26:19.569Z,100.00
2018-11-21T11:29:07.964Z,100.00
2018-11-21T11:31:58.853Z,100.00
2018-11-21T11:37:50.539Z,99.98
2018-11-21T11:40:40.014Z,100.00
2018-11-21T11:43:28.762Z,100.00
2018-11-21T11:46:17.452Z,99.82
2018-11-21T11:49:06.185Z,99.85
2018-11-21T11:51:55.922Z,99.85
2018-11-21T11:54:45.850Z,99.79
2018-11-21T11:57:34.527Z,99.84
2018-11-21T12:00:24.647Z,99.88
2018-11-21T12:03:13.285Z,100.00
2018-11-21T12:06:03.199Z,100.00
2018-11-21T12:08:51.870Z,99.93
2018-11-21T12:11:40.539Z,99.94
2018-11-21T12:14:29.195Z,99.91
2018-11-21T12:17:17.938Z,100.00
2018-11-21T12:20:06.574Z,99.94
2018-11-21T12:22:58.551Z,99.75
2018-11-21T12:25:47.198Z,99.58
2018-11-21T12:28:37.404Z,99.46
2018-11-21T12:31:26.005Z,99.15
2018-11-21T12:37:16.950Z,98.05
2018-11-21T12:40:05.700Z,97.58
2018-11-21T12:42:54.464Z,97.67
2018-11-21T12:45:43.119Z,97.69
2018-11-21T12:48:33.133Z,97.80
2018-11-21T12:51:22.661Z,98.13
2018-11-21T12:54:13.466Z,98.24
2018-11-21T12:57:04.687Z,98.64
2018-11-21T12:59:53.411Z,98.92
2018-11-21T13:02:43.142Z,98.89
2018-11-21T13:05:31.783Z,98.66
2018-11-21T13:08:22.052Z,98.96
2018-11-21T13:11:10.805Z,99.00
2018-11-21T13:17:01.738Z,99.02
2018-11-21T13:19:50.483Z,99.05
2018-11-21T13:22:39.138Z,99.06
2018-11-21T13:28:29.260Z,98.89
2018-11-21T13:31:18.067Z,98.77
2018-11-21T13:34:06.741Z,98.63
2018-11-21T13:36:57.054Z,98.68
2018-11-21T13:39:45.829Z,98.51
2018-11-21T13:42:34.528Z,98.50
2018-11-21T13:45:24.111Z,98.33
2018-11-21T13:48:12.803Z,98.26
2018-11-21T13:54:04.279Z,98.41
2018-11-21T13:56:34.430Z,98.51
2018-11-21T13:59:04.680Z,98.65
2018-11-21T14:01:34.884Z,98.95
2018-11-21T14:04:16.077Z,99.42
2018-11-21T14:07:05.589Z,99.60
2018-11-21T14:09:35.720Z,99.73
2018-11-21T14:12:06.314Z,99.60
2018-11-21T14:14:36.474Z,99.31
2018-11-21T14:17:27.686Z,98.91
2018-11-21T14:19:56.425Z,98.62
2018-11-21T14:22:26.645Z,98.63
2018-11-21T14:24:57.215Z,98.74
2018-11-21T14:33:11.377Z,97.99
2018-11-21T14:35:41.692Z,98.03
2018-11-21T14:38:12.316Z,98.40
2018-11-21T14:40:42.630Z,98.68
2018-11-21T14:43:32.390Z,99.00
2018-11-21T14:46:02.682Z,99.22
2018-11-21T14:48:32.994Z,99.47
2018-11-21T14:51:22.799Z,99.61
2018-11-21T14:53:53.410Z,99.81
2018-11-21T14:56:29.359Z,99.98
2018-11-21T15:01:39.099Z,99.63
2018-11-21T15:04:10.426Z,99.48
2018-11-21T15:06:59.972Z,99.33
2018-11-21T15:21:03.416Z,99.80
2018-11-21T15:23:53.206Z,99.86
2018-11-21T15:26:42.919Z,100.00
2018-11-21T15:32:28.962Z,99.45
2018-11-21T15:35:20.907Z,99.34
2018-11-21T15:38:11.460Z,99.26
2018-11-21T15:41:01.218Z,99.47
2018-11-21T15:53:20.109Z,99.83
2018-11-21T15:59:31.278Z,99.98
2018-11-21T16:02:23.049Z,100.00
2018-11-21T16:05:13.229Z,100.00
2018-11-21T16:08:12.042Z,100.00
2018-11-21T16:11:02.228Z,99.96
2018-11-21T16:13:38.968Z,99.77
2018-11-21T16:16:10.537Z,99.70
2018-11-21T16:18:45.987Z,99.55
2018-11-21T16:21:59.940Z,99.54
2018-11-21T16:24:33.455Z,99.68
2018-11-21T16:29:57.676Z,99.96
2018-11-21T16:32:48.542Z,100.00
2018-11-21T16:35:23.028Z,100.00
2018-11-21T16:38:14.759Z,100.00
2018-11-21T16:44:07.512Z,100.00
2018-11-21T16:47:27.633Z,100.00
2018-11-21T16:50:18.855Z,100.00
2018-11-21T16:53:11.000Z,99.94
2018-11-21T16:55:41.714Z,99.86
2018-11-21T16:58:30.482Z,99.65
2018-11-21T17:01:47.418Z,99.60
2018-11-21T17:10:08.708Z,99.47
2018-11-21T17:12:57.756Z,99.65
2018-11-21T17:15:29.770Z,99.79
2018-11-21T17:18:19.345Z,99.59
2018-11-21T17:21:09.134Z,99.39
2018-11-21T17:23:41.769Z,99.14
2018-11-21T17:26:32.886Z,98.90
2018-11-21T17:29:08.593Z,98.73
2018-11-21T17:31:54.481Z,98.51
2018-11-21T17:37:14.853Z,98.62
2018-11-21T17:42:41.233Z,98.90
2018-11-21T17:45:12.969Z,98.98
2018-11-21T17:51:26.540Z,98.78
2018-11-21T17:53:52.426Z,98.75
2018-11-21T17:56:42.850Z,99.07
2018-11-21T18:02:37.538Z,99.51
2018-11-21T18:05:28.137Z,99.81
2018-11-21T18:08:36.344Z,99.77
2018-11-21T18:11:28.136Z,99.67
2018-11-21T18:13:59.497Z,99.21
2018-11-21T18:16:49.391Z,98.84
2018-11-21T18:19:39.138Z,98.36
2018-11-21T18:22:28.164Z,98.10
2018-11-21T18:30:53.636Z,96.70
2018-11-21T18:33:26.458Z,96.54
2018-11-21T18:36:16.255Z,96.31
2018-11-21T18:39:24.949Z,96.12
2018-11-21T18:42:16.737Z,95.67
2018-11-21T18:45:06.510Z,95.33
2018-11-21T18:47:37.258Z,95.57
2018-11-21T18:50:14.880Z,94.85
2018-11-21T18:52:53.184Z,95.05
2018-11-21T18:55:46.628Z,95.30
2018-11-21T18:58:40.167Z,95.42
2018-11-21T19:01:37.015Z,95.67
2018-11-21T19:04:07.319Z,95.53
2018-11-21T19:09:57.422Z,95.50
2018-11-21T19:12:31.122Z,95.34
2018-11-21T19:15:22.037Z,95.51
2018-11-21T19:17:54.437Z,95.82
2018-11-21T19:20:45.306Z,95.72
2018-11-21T19:23:15.569Z,95.93
2018-11-21T19:25:46.928Z,95.90
2018-11-21T19:31:38.297Z,96.01
2018-11-21T19:34:28.981Z,95.96
2018-11-21T19:37:20.172Z,96.21
2018-11-21T19:42:37.341Z,96.16
2018-11-21T19:48:10.309Z,96.19
2018-11-21T19:50:59.399Z,95.77
2018-11-21T19:53:29.694Z,95.85
2018-11-21T19:56:19.470Z,95.61
2018-11-21T19:58:49.673Z,95.74
2018-11-21T20:01:19.964Z,95.65
2018-11-21T20:04:09.465Z,95.92
2018-11-21T20:06:58.503Z,95.62
2018-11-21T20:09:29.238Z,95.72
2018-11-21T20:12:19.061Z,95.69
2018-11-21T20:14:49.431Z,95.43
2018-11-21T20:17:19.963Z,94.02
2018-11-21T20:19:50.177Z,94.33
2018-11-21T20:22:20.396Z,93.44
2018-11-21T20:24:50.689Z,93.86
2018-11-21T20:27:20.800Z,92.62
2018-11-21T20:29:54.706Z,92.27
2018-11-21T20:32:21.296Z,92.83
2018-11-21T20:35:11.149Z,92.42
2018-11-21T20:37:42.045Z,92.78
2018-11-21T20:40:17.816Z,92.66
2018-11-21T20:43:07.337Z,92.86
2018-11-21T20:45:37.529Z,91.77
2018-11-21T20:48:07.752Z,91.66
2018-11-21T20:50:57.283Z,91.27
2018-11-21T20:53:27.432Z,91.33
2018-11-21T20:55:57.592Z,91.54
2018-11-21T20:58:27.794Z,91.25
2018-11-21T21:00:57.924Z,90.71
2018-11-21T21:03:28.107Z,90.09
2018-11-21T21:08:59.278Z,90.43
2018-11-21T21:11:30.003Z,89.99
2018-11-21T21:14:18.968Z,89.96
2018-11-21T21:16:49.140Z,89.73
2018-11-21T21:19:38.600Z,90.06
2018-11-21T21:22:08.789Z,89.35
2018-11-21T21:28:06.904Z,89.32
2018-11-21T21:30:37.061Z,89.58
2018-11-21T21:33:07.362Z,89.54
2018-11-21T21:35:37.627Z,89.42
2018-11-21T21:38:28.398Z,88.69
2018-11-21T21:40:58.731Z,88.67
2018-11-21T21:43:48.142Z,88.33
2018-11-21T21:46:37.667Z,88.44
2018-11-21T21:49:08.091Z,87.02
2018-11-21T21:51:57.607Z,87.53
2018-11-21T21:54:27.802Z,87.71
2018-11-21T21:57:00.317Z,87.74
2018-11-21T21:59:46.943Z,87.47
